sensor_id;sensor_type;location;lat;lon;timestamp;P1;durP1;ratioP1;P2;durP2;ratioP2
51718;SDS011;37795;53.236;5.704;2024-02-23T00:00:38;1.58;;;0.47;;
51718;SDS011;37795;53.236;5.704;2024-02-23T00:03:04;3.88;;;0.63;;
51718;SDS011;37795;53.236;5.704;2024-02-23T00:05:30;1.58;;;0.60;;
51718;SDS011;37795;53.236;5.704;2024-02-23T00:07:56;1.73;;;0.40;;
51718;SDS011;37795;53.236;5.704;2024-02-23T00:10:22;1.88;;;0.55;;
51718;SDS011;37795;53.236;5.704;2024-02-23T00:12:48;1.70;;;0.47;;
51718;SDS011;37795;53.236;5.704;2024-02-23T00:15:13;2.20;;;0.73;;
51718;SDS011;37795;53.236;5.704;2024-02-23T00:17:39;2.10;;;0.60;;
51718;SDS011;37795;53.236;5.704;2024-02-23T00:20:05;2.67;;;0.70;;
51718;SDS011;37795;53.236;5.704;2024-02-23T00:22:35;2.60;;;0.65;;
51718;SDS011;37795;53.236;5.704;2024-02-23T00:25:01;0.90;;;0.30;;
51718;SDS011;37795;53.236;5.704;2024-02-23T00:27:27;3.03;;;0.70;;
51718;SDS011;37795;53.236;5.704;2024-02-23T00:29:52;2.92;;;0.60;;
51718;SDS011;37795;53.236;5.704;2024-02-23T00:32:18;2.70;;;0.50;;
51718;SDS011;37795;53.236;5.704;2024-02-23T00:34:44;2.22;;;0.60;;
51718;SDS011;37795;53.236;5.704;2024-02-23T00:37:09;1.95;;;0.40;;
51718;SDS011;37795;53.236;5.704;2024-02-23T00:39:35;2.03;;;0.50;;
51718;SDS011;37795;53.236;5.704;2024-02-23T00:42:02;1.40;;;0.30;;
51718;SDS011;37795;53.236;5.704;2024-02-23T00:44:29;1.35;;;0.50;;
51718;SDS011;37795;53.236;5.704;2024-02-23T00:46:54;2.00;;;0.50;;
51718;SDS011;37795;53.236;5.704;2024-02-23T00:49:20;2.25;;;0.80;;
51718;SDS011;37795;53.236;5.704;2024-02-23T00:51:46;3.65;;;0.75;;
51718;SDS011;37795;53.236;5.704;2024-02-23T00:54:11;1.92;;;0.63;;
51718;SDS011;37795;53.236;5.704;2024-02-23T00:56:37;2.78;;;0.52;;
51718;SDS011;37795;53.236;5.704;2024-02-23T00:59:02;1.48;;;0.40;;
51718;SDS011;37795;53.236;5.704;2024-02-23T01:01:28;2.35;;;0.40;;
51718;SDS011;37795;53.236;5.704;2024-02-23T01:03:54;3.05;;;0.90;;
51718;SDS011;37795;53.236;5.704;2024-02-23T01:06:20;4.38;;;0.60;;
51718;SDS011;37795;53.236;5.704;2024-02-23T01:08:45;1.73;;;0.47;;
51718;SDS011;37795;53.236;5.704;2024-02-23T01:11:11;1.75;;;0.63;;
51718;SDS011;37795;53.236;5.704;2024-02-23T01:13:37;3.15;;;0.73;;
51718;SDS011;37795;53.236;5.704;2024-02-23T01:16:02;3.25;;;0.68;;
51718;SDS011;37795;53.236;5.704;2024-02-23T01:18:28;1.38;;;0.40;;
51718;SDS011;37795;53.236;5.704;2024-02-23T01:20:55;2.28;;;0.60;;
51718;SDS011;37795;53.236;5.704;2024-02-23T01:23:22;1.65;;;0.40;;
51718;SDS011;37795;53.236;5.704;2024-02-23T01:25:48;2.15;;;0.52;;
51718;SDS011;37795;53.236;5.704;2024-02-23T01:28:13;2.20;;;0.60;;
51718;SDS011;37795;53.236;5.704;2024-02-23T01:30:39;3.80;;;0.90;;
51718;SDS011;37795;53.236;5.704;2024-02-23T01:33:05;3.08;;;0.50;;
51718;SDS011;37795;53.236;5.704;2024-02-23T01:35:30;1.98;;;0.60;;
51718;SDS011;37795;53.236;5.704;2024-02-23T01:37:56;2.40;;;0.77;;
51718;SDS011;37795;53.236;5.704;2024-02-23T01:40:22;2.28;;;0.80;;
51718;SDS011;37795;53.236;5.704;2024-02-23T01:42:47;1.48;;;0.43;;
51718;SDS011;37795;53.236;5.704;2024-02-23T01:45:13;2.25;;;0.70;;
51718;SDS011;37795;53.236;5.704;2024-02-23T01:47:39;0.95;;;0.47;;
51718;SDS011;37795;53.236;5.704;2024-02-23T01:50:05;1.73;;;0.50;;
51718;SDS011;37795;53.236;5.704;2024-02-23T01:52:32;1.70;;;0.40;;
51718;SDS011;37795;53.236;5.704;2024-02-23T01:54:59;2.58;;;0.60;;
51718;SDS011;37795;53.236;5.704;2024-02-23T01:57:26;1.27;;;0.50;;
51718;SDS011;37795;53.236;5.704;2024-02-23T01:59:52;2.88;;;0.70;;
51718;SDS011;37795;53.236;5.704;2024-02-23T02:02:18;1.17;;;0.63;;
51718;SDS011;37795;53.236;5.704;2024-02-23T02:04:44;3.80;;;0.60;;
51718;SDS011;37795;53.236;5.704;2024-02-23T02:07:10;2.97;;;0.50;;
51718;SDS011;37795;53.236;5.704;2024-02-23T02:09:36;1.42;;;0.40;;
51718;SDS011;37795;53.236;5.704;2024-02-23T02:12:01;1.40;;;0.45;;
51718;SDS011;37795;53.236;5.704;2024-02-23T02:14:27;1.52;;;0.50;;
51718;SDS011;37795;53.236;5.704;2024-02-23T02:16:56;1.10;;;0.38;;
51718;SDS011;37795;53.236;5.704;2024-02-23T02:19:22;2.25;;;0.65;;
51718;SDS011;37795;53.236;5.704;2024-02-23T02:21:47;2.45;;;0.70;;
51718;SDS011;37795;53.236;5.704;2024-02-23T02:24:13;3.38;;;0.70;;
51718;SDS011;37795;53.236;5.704;2024-02-23T02:26:39;2.40;;;0.60;;
51718;SDS011;37795;53.236;5.704;2024-02-23T02:29:04;2.83;;;0.50;;
51718;SDS011;37795;53.236;5.704;2024-02-23T02:31:30;2.13;;;0.40;;
51718;SDS011;37795;53.236;5.704;2024-02-23T02:34:02;1.95;;;0.50;;
51718;SDS011;37795;53.236;5.704;2024-02-23T02:36:28;2.30;;;0.60;;
51718;SDS011;37795;53.236;5.704;2024-02-23T02:38:54;0.65;;;0.25;;
51718;SDS011;37795;53.236;5.704;2024-02-23T02:41:20;2.33;;;0.60;;
51718;SDS011;37795;53.236;5.704;2024-02-23T02:43:48;1.45;;;0.45;;
51718;SDS011;37795;53.236;5.704;2024-02-23T02:46:14;3.05;;;0.60;;
51718;SDS011;37795;53.236;5.704;2024-02-23T02:48:40;1.60;;;0.65;;
51718;SDS011;37795;53.236;5.704;2024-02-23T02:51:05;1.83;;;0.40;;
51718;SDS011;37795;53.236;5.704;2024-02-23T02:53:31;1.92;;;0.50;;
51718;SDS011;37795;53.236;5.704;2024-02-23T02:55:57;0.60;;;0.38;;
51718;SDS011;37795;53.236;5.704;2024-02-23T02:58:23;1.77;;;0.47;;
51718;SDS011;37795;53.236;5.704;2024-02-23T03:00:48;0.90;;;0.30;;
51718;SDS011;37795;53.236;5.704;2024-02-23T03:03:14;1.85;;;0.50;;
51718;SDS011;37795;53.236;5.704;2024-02-23T03:05:40;2.05;;;0.60;;
51718;SDS011;37795;53.236;5.704;2024-02-23T03:08:05;1.80;;;0.30;;
51718;SDS011;37795;53.236;5.704;2024-02-23T03:10:31;1.38;;;0.50;;
51718;SDS011;37795;53.236;5.704;2024-02-23T03:12:57;2.17;;;0.50;;
51718;SDS011;37795;53.236;5.704;2024-02-23T03:15:23;1.05;;;0.40;;
51718;SDS011;37795;53.236;5.704;2024-02-23T03:17:49;1.17;;;0.30;;
51718;SDS011;37795;53.236;5.704;2024-02-23T06:51:25;1.58;;;0.70;;
51718;SDS011;37795;53.236;5.704;2024-02-23T06:53:51;1.90;;;1.10;;
51718;SDS011;37795;53.236;5.704;2024-02-23T06:56:17;2.20;;;1.00;;
51718;SDS011;37795;53.236;5.704;2024-02-23T06:58:43;1.40;;;0.70;;
51718;SDS011;37795;53.236;5.704;2024-02-23T07:01:08;1.40;;;0.70;;
51718;SDS011;37795;53.236;5.704;2024-02-23T07:03:37;2.63;;;0.73;;
51718;SDS011;37795;53.236;5.704;2024-02-23T07:06:05;1.42;;;0.63;;
51718;SDS011;37795;53.236;5.704;2024-02-23T07:08:30;1.37;;;0.73;;
51718;SDS011;37795;53.236;5.704;2024-02-23T07:10:56;1.33;;;0.70;;
51718;SDS011;37795;53.236;5.704;2024-02-23T07:13:22;1.27;;;0.52;;
51718;SDS011;37795;53.236;5.704;2024-02-23T07:15:47;1.20;;;0.60;;
51718;SDS011;37795;53.236;5.704;2024-02-23T07:18:13;1.87;;;0.90;;
51718;SDS011;37795;53.236;5.704;2024-02-23T07:20:40;1.43;;;0.60;;
51718;SDS011;37795;53.236;5.704;2024-02-23T07:23:06;1.53;;;0.63;;
51718;SDS011;37795;53.236;5.704;2024-02-23T07:25:32;1.42;;;0.52;;
51718;SDS011;37795;53.236;5.704;2024-02-23T07:27:58;1.23;;;0.63;;
51718;SDS011;37795;53.236;5.704;2024-02-23T07:30:24;1.47;;;0.70;;
51718;SDS011;37795;53.236;5.704;2024-02-23T07:32:49;1.63;;;0.70;;
51718;SDS011;37795;53.236;5.704;2024-02-23T07:35:15;1.38;;;0.70;;
51718;SDS011;37795;53.236;5.704;2024-02-23T07:37:41;1.98;;;0.80;;
51718;SDS011;37795;53.236;5.704;2024-02-23T07:40:07;1.30;;;0.60;;
51718;SDS011;37795;53.236;5.704;2024-02-23T07:42:33;1.27;;;0.65;;
51718;SDS011;37795;53.236;5.704;2024-02-23T07:45:02;2.15;;;0.70;;
51718;SDS011;37795;53.236;5.704;2024-02-23T07:47:31;1.00;;;0.40;;
51718;SDS011;37795;53.236;5.704;2024-02-23T07:49:57;1.10;;;0.60;;
51718;SDS011;37795;53.236;5.704;2024-02-23T07:52:24;1.15;;;0.70;;
51718;SDS011;37795;53.236;5.704;2024-02-23T07:54:50;0.90;;;0.45;;
51718;SDS011;37795;53.236;5.704;2024-02-23T07:57:17;1.70;;;0.65;;
51718;SDS011;37795;53.236;5.704;2024-02-23T07:59:46;1.25;;;0.70;;
51718;SDS011;37795;53.236;5.704;2024-02-23T08:02:12;1.10;;;0.60;;
51718;SDS011;37795;53.236;5.704;2024-02-23T08:04:39;1.63;;;0.70;;
51718;SDS011;37795;53.236;5.704;2024-02-23T08:07:05;1.30;;;0.60;;
51718;SDS011;37795;53.236;5.704;2024-02-23T08:09:31;1.20;;;0.80;;
51718;SDS011;37795;53.236;5.704;2024-02-23T08:11:57;1.42;;;0.60;;
51718;SDS011;37795;53.236;5.704;2024-02-23T08:14:23;1.10;;;0.70;;
51718;SDS011;37795;53.236;5.704;2024-02-23T08:16:48;1.33;;;0.60;;
51718;SDS011;37795;53.236;5.704;2024-02-23T08:19:15;1.30;;;0.70;;
51718;SDS011;37795;53.236;5.704;2024-02-23T08:21:41;1.83;;;0.80;;
51718;SDS011;37795;53.236;5.704;2024-02-23T08:24:07;1.75;;;0.80;;
51718;SDS011;37795;53.236;5.704;2024-02-23T08:26:32;1.30;;;0.70;;
51718;SDS011;37795;53.236;5.704;2024-02-23T08:28:59;1.65;;;0.70;;
51718;SDS011;37795;53.236;5.704;2024-02-23T08:31:24;1.13;;;0.70;;
51718;SDS011;37795;53.236;5.704;2024-02-23T08:33:50;2.63;;;0.70;;
51718;SDS011;37795;53.236;5.704;2024-02-23T08:36:16;1.27;;;0.70;;
51718;SDS011;37795;53.236;5.704;2024-02-23T08:38:41;1.80;;;0.70;;
51718;SDS011;37795;53.236;5.704;2024-02-23T08:41:07;1.05;;;0.80;;
51718;SDS011;37795;53.236;5.704;2024-02-23T08:43:33;2.08;;;0.80;;
51718;SDS011;37795;53.236;5.704;2024-02-23T08:45:59;0.82;;;0.60;;
51718;SDS011;37795;53.236;5.704;2024-02-23T08:48:25;1.75;;;0.60;;
51718;SDS011;37795;53.236;5.704;2024-02-23T08:50:51;1.80;;;0.60;;
51718;SDS011;37795;53.236;5.704;2024-02-23T08:53:16;1.57;;;0.80;;
51718;SDS011;37795;53.236;5.704;2024-02-23T08:55:42;1.08;;;0.60;;
51718;SDS011;37795;53.236;5.704;2024-02-23T08:58:08;1.77;;;0.63;;
51718;SDS011;37795;53.236;5.704;2024-02-23T09:00:34;1.60;;;0.60;;
51718;SDS011;37795;53.236;5.704;2024-02-23T09:03:02;1.10;;;0.50;;
51718;SDS011;37795;53.236;5.704;2024-02-23T09:05:28;1.33;;;0.70;;
51718;SDS011;37795;53.236;5.704;2024-02-23T09:07:54;1.73;;;0.70;;
51718;SDS011;37795;53.236;5.704;2024-02-23T09:10:20;0.90;;;0.50;;
51718;SDS011;37795;53.236;5.704;2024-02-23T09:12:46;1.30;;;0.88;;
51718;SDS011;37795;53.236;5.704;2024-02-23T09:15:12;1.50;;;0.90;;
51718;SDS011;37795;53.236;5.704;2024-02-23T09:17:39;1.52;;;0.70;;
51718;SDS011;37795;53.236;5.704;2024-02-23T09:20:06;1.50;;;0.68;;
51718;SDS011;37795;53.236;5.704;2024-02-23T09:22:32;1.60;;;0.60;;
51718;SDS011;37795;53.236;5.704;2024-02-23T09:24:58;1.08;;;0.60;;
51718;SDS011;37795;53.236;5.704;2024-02-23T09:27:24;1.55;;;0.60;;
51718;SDS011;37795;53.236;5.704;2024-02-23T09:29:49;0.77;;;0.50;;
51718;SDS011;37795;53.236;5.704;2024-02-23T09:32:15;1.60;;;0.70;;
51718;SDS011;37795;53.236;5.704;2024-02-23T09:34:41;1.10;;;0.55;;
51718;SDS011;37795;53.236;5.704;2024-02-23T09:37:07;1.10;;;0.50;;
51718;SDS011;37795;53.236;5.704;2024-02-23T09:39:33;1.13;;;0.63;;
51718;SDS011;37795;53.236;5.704;2024-02-23T09:41:59;1.08;;;0.80;;
51718;SDS011;37795;53.236;5.704;2024-02-23T09:44:26;1.60;;;0.65;;
51718;SDS011;37795;53.236;5.704;2024-02-23T09:47:03;1.35;;;0.60;;
51718;SDS011;37795;53.236;5.704;2024-02-23T09:49:39;1.33;;;0.70;;
51718;SDS011;37795;53.236;5.704;2024-02-23T09:52:06;1.27;;;0.73;;
51718;SDS011;37795;53.236;5.704;2024-02-23T09:54:34;1.40;;;0.65;;
51718;SDS011;37795;53.236;5.704;2024-02-23T09:57:00;1.75;;;0.68;;
51718;SDS011;37795;53.236;5.704;2024-02-23T09:59:31;0.98;;;0.50;;
51718;SDS011;37795;53.236;5.704;2024-02-23T10:01:57;1.75;;;0.60;;
51718;SDS011;37795;53.236;5.704;2024-02-23T10:04:23;0.95;;;0.52;;
51718;SDS011;37795;53.236;5.704;2024-02-23T10:06:51;1.27;;;0.70;;
51718;SDS011;37795;53.236;5.704;2024-02-23T10:09:16;0.90;;;0.50;;
51718;SDS011;37795;53.236;5.704;2024-02-23T10:11:42;1.13;;;0.50;;
51718;SDS011;37795;53.236;5.704;2024-02-23T10:14:08;1.17;;;0.70;;
51718;SDS011;37795;53.236;5.704;2024-02-23T10:16:33;0.80;;;0.50;;
51718;SDS011;37795;53.236;5.704;2024-02-23T10:18:59;2.00;;;0.60;;
51718;SDS011;37795;53.236;5.704;2024-02-23T10:21:25;1.23;;;0.70;;
51718;SDS011;37795;53.236;5.704;2024-02-23T10:23:50;1.20;;;0.60;;
51718;SDS011;37795;53.236;5.704;2024-02-23T10:26:17;1.25;;;0.60;;
51718;SDS011;37795;53.236;5.704;2024-02-23T10:28:44;1.90;;;0.65;;
51718;SDS011;37795;53.236;5.704;2024-02-23T10:31:11;1.20;;;0.60;;
51718;SDS011;37795;53.236;5.704;2024-02-23T10:33:36;1.40;;;0.70;;
51718;SDS011;37795;53.236;5.704;2024-02-23T10:36:04;1.13;;;0.60;;
51718;SDS011;37795;53.236;5.704;2024-02-23T10:38:33;1.40;;;0.60;;
51718;SDS011;37795;53.236;5.704;2024-02-23T10:41:02;0.80;;;0.50;;
51718;SDS011;37795;53.236;5.704;2024-02-23T10:43:39;1.05;;;0.60;;
51718;SDS011;37795;53.236;5.704;2024-02-23T10:51:25;1.27;;;0.40;;
51718;SDS011;37795;53.236;5.704;2024-02-23T10:53:51;0.63;;;0.30;;
51718;SDS011;37795;53.236;5.704;2024-02-23T10:56:18;0.75;;;0.30;;
51718;SDS011;37795;53.236;5.704;2024-02-23T10:58:44;1.15;;;0.30;;
51718;SDS011;37795;53.236;5.704;2024-02-23T11:01:11;0.75;;;0.30;;
51718;SDS011;37795;53.236;5.704;2024-02-23T11:03:40;2.22;;;0.35;;
51718;SDS011;37795;53.236;5.704;2024-02-23T11:06:08;1.15;;;0.55;;
51718;SDS011;37795;53.236;5.704;2024-02-23T11:08:33;1.05;;;0.40;;
51718;SDS011;37795;53.236;5.704;2024-02-23T11:11:07;0.90;;;0.30;;
51718;SDS011;37795;53.236;5.704;2024-02-23T11:13:34;0.85;;;0.30;;
51718;SDS011;37795;53.236;5.704;2024-02-23T11:16:07;0.95;;;0.40;;
51718;SDS011;37795;53.236;5.704;2024-02-23T11:18:38;1.10;;;0.50;;
51718;SDS011;37795;53.236;5.704;2024-02-23T11:21:05;0.63;;;0.20;;
51718;SDS011;37795;53.236;5.704;2024-02-23T11:26:09;0.73;;;0.50;;
51718;SDS011;37795;53.236;5.704;2024-02-23T11:29:10;0.52;;;0.30;;
51718;SDS011;37795;53.236;5.704;2024-02-23T11:31:43;0.60;;;0.20;;
51718;SDS011;37795;53.236;5.704;2024-02-23T11:34:10;0.88;;;0.30;;
51718;SDS011;37795;53.236;5.704;2024-02-23T11:36:38;1.33;;;0.30;;
51718;SDS011;37795;53.236;5.704;2024-02-23T11:39:04;1.17;;;0.57;;
51718;SDS011;37795;53.236;5.704;2024-02-23T11:41:30;0.98;;;0.40;;
51718;SDS011;37795;53.236;5.704;2024-02-23T11:43:56;0.40;;;0.20;;
51718;SDS011;37795;53.236;5.704;2024-02-23T11:46:25;2.22;;;0.40;;
51718;SDS011;37795;53.236;5.704;2024-02-23T11:48:51;0.73;;;0.30;;
51718;SDS011;37795;53.236;5.704;2024-02-23T11:51:20;0.85;;;0.32;;
51718;SDS011;37795;53.236;5.704;2024-02-23T11:53:46;1.67;;;0.30;;
51718;SDS011;37795;53.236;5.704;2024-02-23T11:56:13;0.80;;;0.22;;
51718;SDS011;37795;53.236;5.704;2024-02-23T11:58:40;1.40;;;0.60;;
51718;SDS011;37795;53.236;5.704;2024-02-23T12:01:05;0.75;;;0.40;;
51718;SDS011;37795;53.236;5.704;2024-02-23T12:03:32;1.02;;;0.50;;
51718;SDS011;37795;53.236;5.704;2024-02-23T18:51:25;3.50;;;1.85;;
51718;SDS011;37795;53.236;5.704;2024-02-23T18:53:53;3.47;;;1.90;;
51718;SDS011;37795;53.236;5.704;2024-02-23T18:56:19;2.80;;;1.42;;
51718;SDS011;37795;53.236;5.704;2024-02-23T18:58:45;3.30;;;1.70;;
51718;SDS011;37795;53.236;5.704;2024-02-23T19:01:11;3.30;;;1.50;;
51718;SDS011;37795;53.236;5.704;2024-02-23T19:03:37;2.83;;;1.40;;
51718;SDS011;37795;53.236;5.704;2024-02-23T19:06:04;3.30;;;1.40;;
51718;SDS011;37795;53.236;5.704;2024-02-23T19:08:29;3.53;;;1.80;;
51718;SDS011;37795;53.236;5.704;2024-02-23T19:10:55;2.97;;;1.67;;
51718;SDS011;37795;53.236;5.704;2024-02-23T19:13:21;3.40;;;1.50;;
51718;SDS011;37795;53.236;5.704;2024-02-23T19:15:46;2.92;;;1.60;;
51718;SDS011;37795;53.236;5.704;2024-02-23T19:18:12;2.20;;;1.30;;
51718;SDS011;37795;53.236;5.704;2024-02-23T19:20:38;3.40;;;1.40;;
51718;SDS011;37795;53.236;5.704;2024-02-23T19:23:04;3.20;;;1.67;;
51718;SDS011;37795;53.236;5.704;2024-02-23T19:25:30;3.35;;;1.50;;
51718;SDS011;37795;53.236;5.704;2024-02-23T19:27:55;2.47;;;1.52;;
51718;SDS011;37795;53.236;5.704;2024-02-23T19:30:21;3.17;;;1.50;;
51718;SDS011;37795;53.236;5.704;2024-02-23T19:32:47;4.05;;;1.58;;
51718;SDS011;37795;53.236;5.704;2024-02-23T19:35:14;2.75;;;1.60;;
51718;SDS011;37795;53.236;5.704;2024-02-23T19:37:40;3.25;;;1.40;;
51718;SDS011;37795;53.236;5.704;2024-02-23T19:40:06;3.93;;;1.53;;
51718;SDS011;37795;53.236;5.704;2024-02-23T19:42:36;3.80;;;1.38;;
51718;SDS011;37795;53.236;5.704;2024-02-23T19:45:03;3.25;;;1.40;;
51718;SDS011;37795;53.236;5.704;2024-02-23T19:47:29;2.53;;;1.20;;
51718;SDS011;37795;53.236;5.704;2024-02-23T19:49:55;2.63;;;1.30;;
51718;SDS011;37795;53.236;5.704;2024-02-23T19:52:21;2.63;;;1.20;;
51718;SDS011;37795;53.236;5.704;2024-02-23T19:54:47;1.95;;;1.00;;
51718;SDS011;37795;53.236;5.704;2024-02-23T19:57:13;2.80;;;1.27;;
51718;SDS011;37795;53.236;5.704;2024-02-23T19:59:39;2.85;;;1.45;;
51718;SDS011;37795;53.236;5.704;2024-02-23T20:02:05;2.35;;;1.40;;
51718;SDS011;37795;53.236;5.704;2024-02-23T20:04:34;2.50;;;1.23;;
51718;SDS011;37795;53.236;5.704;2024-02-23T20:07:00;3.05;;;1.45;;
51718;SDS011;37795;53.236;5.704;2024-02-23T20:09:28;3.10;;;1.20;;
51718;SDS011;37795;53.236;5.704;2024-02-23T20:11:54;4.30;;;1.43;;
51718;SDS011;37795;53.236;5.704;2024-02-23T20:14:19;2.57;;;1.27;;
51718;SDS011;37795;53.236;5.704;2024-02-23T20:16:46;2.33;;;1.23;;
51718;SDS011;37795;53.236;5.704;2024-02-23T20:19:12;2.17;;;1.20;;
51718;SDS011;37795;53.236;5.704;2024-02-23T20:21:41;2.30;;;1.20;;
51718;SDS011;37795;53.236;5.704;2024-02-23T20:24:07;2.75;;;1.55;;
51718;SDS011;37795;53.236;5.704;2024-02-23T20:26:33;2.40;;;1.20;;
51718;SDS011;37795;53.236;5.704;2024-02-23T20:28:59;2.40;;;1.20;;
51718;SDS011;37795;53.236;5.704;2024-02-23T20:31:24;2.63;;;1.43;;
51718;SDS011;37795;53.236;5.704;2024-02-23T20:33:50;2.63;;;1.48;;
51718;SDS011;37795;53.236;5.704;2024-02-23T20:36:16;3.50;;;1.20;;
51718;SDS011;37795;53.236;5.704;2024-02-23T20:38:41;2.60;;;1.57;;
51718;SDS011;37795;53.236;5.704;2024-02-23T20:41:07;3.00;;;1.40;;
51718;SDS011;37795;53.236;5.704;2024-02-23T20:43:33;3.63;;;1.60;;
51718;SDS011;37795;53.236;5.704;2024-02-23T20:45:58;4.00;;;1.65;;
51718;SDS011;37795;53.236;5.704;2024-02-23T20:48:24;2.80;;;1.60;;
51718;SDS011;37795;53.236;5.704;2024-02-23T20:50:50;2.57;;;1.70;;
51718;SDS011;37795;53.236;5.704;2024-02-23T20:53:15;3.15;;;1.45;;
51718;SDS011;37795;53.236;5.704;2024-02-23T20:55:41;3.38;;;1.60;;
51718;SDS011;37795;53.236;5.704;2024-02-23T20:58:07;2.87;;;1.40;;
51718;SDS011;37795;53.236;5.704;2024-02-23T21:00:32;2.73;;;1.40;;
51718;SDS011;37795;53.236;5.704;2024-02-23T21:02:58;3.03;;;1.50;;
51718;SDS011;37795;53.236;5.704;2024-02-23T21:05:24;2.90;;;1.65;;
51718;SDS011;37795;53.236;5.704;2024-02-23T21:07:49;2.67;;;1.33;;
51718;SDS011;37795;53.236;5.704;2024-02-23T21:10:15;2.60;;;1.30;;
51718;SDS011;37795;53.236;5.704;2024-02-23T21:12:41;2.77;;;1.43;;
51718;SDS011;37795;53.236;5.704;2024-02-23T21:15:07;1.70;;;1.00;;
51718;SDS011;37795;53.236;5.704;2024-02-23T21:17:33;2.80;;;1.17;;
51718;SDS011;37795;53.236;5.704;2024-02-23T21:19:59;2.37;;;1.23;;
51718;SDS011;37795;53.236;5.704;2024-02-23T21:22:25;3.03;;;1.47;;
51718;SDS011;37795;53.236;5.704;2024-02-23T21:24:50;2.67;;;1.20;;
51718;SDS011;37795;53.236;5.704;2024-02-23T21:27:16;2.53;;;1.40;;
51718;SDS011;37795;53.236;5.704;2024-02-23T21:29:41;2.27;;;1.20;;
51718;SDS011;37795;53.236;5.704;2024-02-23T21:32:10;2.92;;;1.20;;
51718;SDS011;37795;53.236;5.704;2024-02-23T21:34:36;2.63;;;1.27;;
51718;SDS011;37795;53.236;5.704;2024-02-23T21:37:02;2.92;;;1.38;;
51718;SDS011;37795;53.236;5.704;2024-02-23T21:39:27;2.50;;;1.30;;
51718;SDS011;37795;53.236;5.704;2024-02-23T21:41:54;2.47;;;1.50;;
51718;SDS011;37795;53.236;5.704;2024-02-23T21:51:24;2.05;;;0.90;;
51718;SDS011;37795;53.236;5.704;2024-02-23T21:53:50;1.58;;;0.70;;
51718;SDS011;37795;53.236;5.704;2024-02-23T21:56:16;2.67;;;0.90;;
51718;SDS011;37795;53.236;5.704;2024-02-23T21:58:42;1.65;;;0.82;;
51718;SDS011;37795;53.236;5.704;2024-02-23T22:01:07;1.85;;;0.80;;
51718;SDS011;37795;53.236;5.704;2024-02-23T22:03:33;1.75;;;0.80;;
51718;SDS011;37795;53.236;5.704;2024-02-23T22:06:00;2.83;;;0.70;;
51718;SDS011;37795;53.236;5.704;2024-02-23T22:08:25;2.75;;;0.82;;
51718;SDS011;37795;53.236;5.704;2024-02-23T22:10:51;1.95;;;0.95;;
51718;SDS011;37795;53.236;5.704;2024-02-23T22:13:19;1.70;;;0.77;;
51718;SDS011;37795;53.236;5.704;2024-02-23T22:15:44;2.92;;;0.82;;
51718;SDS011;37795;53.236;5.704;2024-02-23T22:18:10;1.90;;;0.98;;
51718;SDS011;37795;53.236;5.704;2024-02-23T22:20:37;2.00;;;0.88;;
51718;SDS011;37795;53.236;5.704;2024-02-23T22:23:03;2.08;;;0.82;;
51718;SDS011;37795;53.236;5.704;2024-02-23T22:25:28;1.65;;;0.95;;
51718;SDS011;37795;53.236;5.704;2024-02-23T22:27:54;2.85;;;0.85;;
51718;SDS011;37795;53.236;5.704;2024-02-23T22:30:20;2.75;;;0.90;;
51718;SDS011;37795;53.236;5.704;2024-02-23T22:32:45;5.22;;;1.17;;
51718;SDS011;37795;53.236;5.704;2024-02-23T22:35:12;2.85;;;1.10;;
51718;SDS011;37795;53.236;5.704;2024-02-23T22:37:39;2.22;;;0.90;;
51718;SDS011;37795;53.236;5.704;2024-02-23T22:40:05;2.83;;;1.05;;
51718;SDS011;37795;53.236;5.704;2024-02-23T22:42:38;2.80;;;0.93;;
51718;SDS011;37795;53.236;5.704;2024-02-23T22:45:04;3.05;;;0.90;;
51718;SDS011;37795;53.236;5.704;2024-02-23T22:47:30;1.30;;;0.70;;
51718;SDS011;37795;53.236;5.704;2024-02-23T22:49:56;3.60;;;1.13;;
51718;SDS011;37795;53.236;5.704;2024-02-23T22:52:22;2.90;;;0.77;;
51718;SDS011;37795;53.236;5.704;2024-02-23T22:54:47;1.00;;;0.70;;
51718;SDS011;37795;53.236;5.704;2024-02-23T22:57:13;1.60;;;0.80;;
51718;SDS011;37795;53.236;5.704;2024-02-23T22:59:39;3.92;;;1.00;;
51718;SDS011;37795;53.236;5.704;2024-02-23T23:02:04;1.48;;;0.70;;
51718;SDS011;37795;53.236;5.704;2024-02-23T23:04:30;1.95;;;0.80;;
51718;SDS011;37795;53.236;5.704;2024-02-23T23:06:56;1.42;;;0.73;;
51718;SDS011;37795;53.236;5.704;2024-02-23T23:09:21;2.20;;;0.90;;
51718;SDS011;37795;53.236;5.704;2024-02-23T23:11:47;1.90;;;0.70;;
51718;SDS011;37795;53.236;5.704;2024-02-23T23:14:13;2.90;;;1.10;;
51718;SDS011;37795;53.236;5.704;2024-02-23T23:16:39;1.95;;;0.85;;
51718;SDS011;37795;53.236;5.704;2024-02-23T23:19:04;2.05;;;0.90;;
51718;SDS011;37795;53.236;5.704;2024-02-23T23:21:30;2.85;;;0.80;;
51718;SDS011;37795;53.236;5.704;2024-02-23T23:23:56;1.55;;;0.90;;
51718;SDS011;37795;53.236;5.704;2024-02-23T23:26:22;2.33;;;0.57;;
51718;SDS011;37795;53.236;5.704;2024-02-23T23:28:49;2.83;;;1.17;;
51718;SDS011;37795;53.236;5.704;2024-02-23T23:31:15;2.72;;;0.80;;
51718;SDS011;37795;53.236;5.704;2024-02-23T23:33:42;2.00;;;0.80;;
51718;SDS011;37795;53.236;5.704;2024-02-23T23:36:08;1.70;;;0.90;;
51718;SDS011;37795;53.236;5.704;2024-02-23T23:38:35;2.38;;;0.90;;
51718;SDS011;37795;53.236;5.704;2024-02-23T23:41:01;2.35;;;0.85;;
51718;SDS011;37795;53.236;5.704;2024-02-23T23:43:28;1.83;;;0.77;;
51718;SDS011;37795;53.236;5.704;2024-02-23T23:45:53;2.97;;;0.65;;
51718;SDS011;37795;53.236;5.704;2024-02-23T23:48:19;2.08;;;0.82;;
51718;SDS011;37795;53.236;5.704;2024-02-23T23:50:45;1.63;;;0.70;;
51718;SDS011;37795;53.236;5.704;2024-02-23T23:53:11;1.67;;;0.75;;
51718;SDS011;37795;53.236;5.704;2024-02-23T23:55:37;1.98;;;0.70;;
